Sal'sk, Russia
Current Conditions -  °F | °C
As of 5:00 AM on Friday 19 Dec 2014 (Local Time) from URRR Reporting Station
Light Rain Light Rain  
Wind Chill: 41°   Ceiling: 200
Heat Index: 45°   Visibility: 0.87mi
Dew Point: 45°   Wind: 7mph
Humidity: 100%   Direction: 260°W
Pressure: 29.94"   Gusts: NA
Location:  46.46°N, 41.54°E
Report Text: URRR 190200Z 26003MPS 1400 R22/P1500N -RA BR BKN002 OVC10007/07 Q1014 22290042 TEMPO 0400 FG OVC002 RMK QBB060 MAST OBSC
Loading
Personal Weather Stations






























Interactive Weather Map New forecast layout! Learn more

10-Day Weather Forecast

Advertisements
Track Severe Weather on mobile